sensor_id;sensor_type;location;lat;lon;timestamp;temperature;humidity
49489;SHT31;35382;51.484;11.476;2024-03-02T00:00:50;2.57;98.41
49489;SHT31;35382;51.484;11.476;2024-03-02T00:03:16;2.70;98.64
49489;SHT31;35382;51.484;11.476;2024-03-02T00:05:41;2.81;98.65
49489;SHT31;35382;51.484;11.476;2024-03-02T00:08:07;2.83;98.64
49489;SHT31;35382;51.484;11.476;2024-03-02T00:10:39;2.92;98.67
49489;SHT31;35382;51.484;11.476;2024-03-02T00:13:08;2.92;98.73
49489;SHT31;35382;51.484;11.476;2024-03-02T00:15:55;3.08;98.94
49489;SHT31;35382;51.484;11.476;2024-03-02T00:18:31;3.13;98.91
49489;SHT31;35382;51.484;11.476;2024-03-02T00:20:57;3.19;98.83
49489;SHT31;35382;51.484;11.476;2024-03-02T00:23:23;3.07;98.68
49489;SHT31;35382;51.484;11.476;2024-03-02T00:25:50;2.91;98.47
49489;SHT31;35382;51.484;11.476;2024-03-02T00:28:22;2.99;98.26
49489;SHT31;35382;51.484;11.476;2024-03-02T00:33:34;2.99;98.63
49489;SHT31;35382;51.484;11.476;2024-03-02T00:36:04;2.99;98.79
49489;SHT31;35382;51.484;11.476;2024-03-02T00:38:31;2.99;98.82
49489;SHT31;35382;51.484;11.476;2024-03-02T00:40:58;3.04;98.91
49489;SHT31;35382;51.484;11.476;2024-03-02T00:43:54;3.08;98.91
49489;SHT31;35382;51.484;11.476;2024-03-02T00:46:22;3.19;98.85
49489;SHT31;35382;51.484;11.476;2024-03-02T00:48:55;3.18;98.68
49489;SHT31;35382;51.484;11.476;2024-03-02T00:51:23;3.18;98.76
49489;SHT31;35382;51.484;11.476;2024-03-02T00:53:49;3.22;98.86
49489;SHT31;35382;51.484;11.476;2024-03-02T00:56:17;3.16;98.83
49489;SHT31;35382;51.484;11.476;2024-03-02T00:58:42;3.31;98.81
49489;SHT31;35382;51.484;11.476;2024-03-02T01:01:08;3.26;98.77
49489;SHT31;35382;51.484;11.476;2024-03-02T01:03:34;3.35;98.76
49489;SHT31;35382;51.484;11.476;2024-03-02T01:05:59;3.36;98.76
49489;SHT31;35382;51.484;11.476;2024-03-02T01:08:25;3.42;98.73
49489;SHT31;35382;51.484;11.476;2024-03-02T01:10:50;3.38;98.66
49489;SHT31;35382;51.484;11.476;2024-03-02T01:13:15;3.39;98.58
49489;SHT31;35382;51.484;11.476;2024-03-02T01:15:43;3.33;98.47
49489;SHT31;35382;51.484;11.476;2024-03-02T01:18:09;3.36;98.51
49489;SHT31;35382;51.484;11.476;2024-03-02T01:20:34;3.45;98.60
49489;SHT31;35382;51.484;11.476;2024-03-02T01:22:59;3.52;98.55
49489;SHT31;35382;51.484;11.476;2024-03-02T01:25:25;3.53;98.55
49489;SHT31;35382;51.484;11.476;2024-03-02T01:27:50;3.52;98.51
49489;SHT31;35382;51.484;11.476;2024-03-02T01:30:16;3.65;98.57
49489;SHT31;35382;51.484;11.476;2024-03-02T01:32:41;3.60;98.40
49489;SHT31;35382;51.484;11.476;2024-03-02T01:35:07;3.59;98.44
49489;SHT31;35382;51.484;11.476;2024-03-02T01:37:32;3.55;98.51
49489;SHT31;35382;51.484;11.476;2024-03-02T01:39:58;3.62;98.69
49489;SHT31;35382;51.484;11.476;2024-03-02T01:42:23;3.72;98.73
49489;SHT31;35382;51.484;11.476;2024-03-02T01:44:49;3.72;98.64
49489;SHT31;35382;51.484;11.476;2024-03-02T01:47:14;3.65;98.54
49489;SHT31;35382;51.484;11.476;2024-03-02T01:49:39;3.79;98.57
49489;SHT31;35382;51.484;11.476;2024-03-02T01:52:06;3.89;98.54
49489;SHT31;35382;51.484;11.476;2024-03-02T01:54:31;3.94;98.56
49489;SHT31;35382;51.484;11.476;2024-03-02T01:56:56;4.04;98.46
49489;SHT31;35382;51.484;11.476;2024-03-02T01:59:22;4.09;98.31
49489;SHT31;35382;51.484;11.476;2024-03-02T02:01:47;3.91;98.00
49489;SHT31;35382;51.484;11.476;2024-03-02T02:04:12;3.96;97.95
49489;SHT31;35382;51.484;11.476;2024-03-02T02:06:38;4.01;97.93
49489;SHT31;35382;51.484;11.476;2024-03-02T02:09:03;3.94;98.00
49489;SHT31;35382;51.484;11.476;2024-03-02T02:11:28;4.01;98.21
49489;SHT31;35382;51.484;11.476;2024-03-02T02:13:54;4.07;98.06
49489;SHT31;35382;51.484;11.476;2024-03-02T02:16:19;4.14;97.90
49489;SHT31;35382;51.484;11.476;2024-03-02T02:18:44;4.20;97.60
49489;SHT31;35382;51.484;11.476;2024-03-02T02:21:10;4.21;97.34
49489;SHT31;35382;51.484;11.476;2024-03-02T02:23:35;4.25;97.57
49489;SHT31;35382;51.484;11.476;2024-03-02T02:26:01;4.20;97.76
49489;SHT31;35382;51.484;11.476;2024-03-02T02:28:27;4.13;97.73
49489;SHT31;35382;51.484;11.476;2024-03-02T02:30:54;4.25;97.75
49489;SHT31;35382;51.484;11.476;2024-03-02T02:33:20;4.47;97.52
49489;SHT31;35382;51.484;11.476;2024-03-02T02:35:45;4.34;97.30
49489;SHT31;35382;51.484;11.476;2024-03-02T02:38:11;4.33;97.27
49489;SHT31;35382;51.484;11.476;2024-03-02T02:40:36;4.25;97.29
49489;SHT31;35382;51.484;11.476;2024-03-02T02:43:04;4.07;97.12
49489;SHT31;35382;51.484;11.476;2024-03-02T02:45:29;3.97;97.21
49489;SHT31;35382;51.484;11.476;2024-03-02T02:47:55;4.01;97.17
49489;SHT31;35382;51.484;11.476;2024-03-02T02:50:20;4.07;97.28
49489;SHT31;35382;51.484;11.476;2024-03-02T02:52:46;4.17;97.40
49489;SHT31;35382;51.484;11.476;2024-03-02T02:55:12;4.18;97.36
49489;SHT31;35382;51.484;11.476;2024-03-02T02:57:40;4.09;97.37
49489;SHT31;35382;51.484;11.476;2024-03-02T03:00:10;4.04;97.43
49489;SHT31;35382;51.484;11.476;2024-03-02T03:02:40;3.94;97.63
49489;SHT31;35382;51.484;11.476;2024-03-02T03:05:06;3.93;97.82
49489;SHT31;35382;51.484;11.476;2024-03-02T03:07:32;3.93;98.02
49489;SHT31;35382;51.484;11.476;2024-03-02T03:09:57;4.04;98.15
49489;SHT31;35382;51.484;11.476;2024-03-02T03:12:22;4.11;98.14
49489;SHT31;35382;51.484;11.476;2024-03-02T03:14:48;4.18;98.10
49489;SHT31;35382;51.484;11.476;2024-03-02T03:17:13;4.21;98.03
49489;SHT31;35382;51.484;11.476;2024-03-02T03:19:38;4.25;97.86
49489;SHT31;35382;51.484;11.476;2024-03-02T03:22:04;4.27;97.79
49489;SHT31;35382;51.484;11.476;2024-03-02T03:24:29;4.30;97.89
49489;SHT31;35382;51.484;11.476;2024-03-02T03:26:55;4.27;97.92
49489;SHT31;35382;51.484;11.476;2024-03-02T03:29:20;4.37;98.04
49489;SHT31;35382;51.484;11.476;2024-03-02T03:31:45;4.44;98.04
49489;SHT31;35382;51.484;11.476;2024-03-02T03:34:13;4.44;97.85
49489;SHT31;35382;51.484;11.476;2024-03-02T03:36:38;4.50;97.68
49489;SHT31;35382;51.484;11.476;2024-03-02T03:39:04;4.41;97.40
49489;SHT31;35382;51.484;11.476;2024-03-02T03:41:31;4.54;97.01
49489;SHT31;35382;51.484;11.476;2024-03-02T03:43:56;4.38;96.82
49489;SHT31;35382;51.484;11.476;2024-03-02T03:46:21;4.33;96.92
49489;SHT31;35382;51.484;11.476;2024-03-02T03:48:47;4.10;96.92
49489;SHT31;35382;51.484;11.476;2024-03-02T03:51:12;4.00;97.37
49489;SHT31;35382;51.484;11.476;2024-03-02T03:53:40;4.03;97.56
49489;SHT31;35382;51.484;11.476;2024-03-02T03:56:05;4.11;97.62
49489;SHT31;35382;51.484;11.476;2024-03-02T03:58:31;4.14;97.66
49489;SHT31;35382;51.484;11.476;2024-03-02T04:00:56;4.07;97.70
49489;SHT31;35382;51.484;11.476;2024-03-02T04:03:21;4.13;97.69
49489;SHT31;35382;51.484;11.476;2024-03-02T04:05:47;4.16;97.70
49489;SHT31;35382;51.484;11.476;2024-03-02T04:08:12;4.10;97.86
49489;SHT31;35382;51.484;11.476;2024-03-02T04:10:38;4.20;97.88
49489;SHT31;35382;51.484;11.476;2024-03-02T04:13:03;4.27;98.16
49489;SHT31;35382;51.484;11.476;2024-03-02T04:15:29;4.29;98.23
49489;SHT31;35382;51.484;11.476;2024-03-02T04:17:54;4.27;98.34
49489;SHT31;35382;51.484;11.476;2024-03-02T04:20:20;4.43;98.33
49489;SHT31;35382;51.484;11.476;2024-03-02T04:22:45;4.50;98.16
49489;SHT31;35382;51.484;11.476;2024-03-02T04:25:10;4.43;98.03
49489;SHT31;35382;51.484;11.476;2024-03-02T04:27:36;4.36;98.06
49489;SHT31;35382;51.484;11.476;2024-03-02T04:30:01;4.37;98.13
49489;SHT31;35382;51.484;11.476;2024-03-02T04:32:27;4.38;98.14
49489;SHT31;35382;51.484;11.476;2024-03-02T04:34:52;4.36;98.16
49489;SHT31;35382;51.484;11.476;2024-03-02T04:37:18;4.33;98.21
49489;SHT31;35382;51.484;11.476;2024-03-02T04:39:43;4.38;98.28
49489;SHT31;35382;51.484;11.476;2024-03-02T04:42:08;4.43;98.24
49489;SHT31;35382;51.484;11.476;2024-03-02T04:44:34;4.41;98.14
49489;SHT31;35382;51.484;11.476;2024-03-02T04:46:59;4.34;98.13
49489;SHT31;35382;51.484;11.476;2024-03-02T04:49:24;4.30;98.13
49489;SHT31;35382;51.484;11.476;2024-03-02T04:51:50;4.30;98.33
49489;SHT31;35382;51.484;11.476;2024-03-02T04:54:18;4.24;98.41
49489;SHT31;35382;51.484;11.476;2024-03-02T04:56:45;4.30;98.50
49489;SHT31;35382;51.484;11.476;2024-03-02T04:59:11;4.36;98.42
49489;SHT31;35382;51.484;11.476;2024-03-02T05:01:36;4.34;98.43
49489;SHT31;35382;51.484;11.476;2024-03-02T05:04:01;4.37;98.45
49489;SHT31;35382;51.484;11.476;2024-03-02T05:06:27;4.38;98.55
49489;SHT31;35382;51.484;11.476;2024-03-02T05:08:52;4.57;98.46
49489;SHT31;35382;51.484;11.476;2024-03-02T05:11:18;4.77;97.81
49489;SHT31;35382;51.484;11.476;2024-03-02T05:13:43;4.64;97.66
49489;SHT31;35382;51.484;11.476;2024-03-02T05:16:08;4.55;97.74
49489;SHT31;35382;51.484;11.476;2024-03-02T05:18:33;4.47;97.74
49489;SHT31;35382;51.484;11.476;2024-03-02T05:20:59;4.44;97.92
49489;SHT31;35382;51.484;11.476;2024-03-02T05:23:24;4.40;98.02
49489;SHT31;35382;51.484;11.476;2024-03-02T05:25:50;4.38;97.96
49489;SHT31;35382;51.484;11.476;2024-03-02T05:28:15;4.33;98.07
49489;SHT31;35382;51.484;11.476;2024-03-02T05:30:42;4.34;98.37
49489;SHT31;35382;51.484;11.476;2024-03-02T05:33:07;4.40;98.54
49489;SHT31;35382;51.484;11.476;2024-03-02T05:35:33;4.43;98.62
49489;SHT31;35382;51.484;11.476;2024-03-02T05:37:58;4.40;98.61
49489;SHT31;35382;51.484;11.476;2024-03-02T05:40:23;4.27;98.56
49489;SHT31;35382;51.484;11.476;2024-03-02T05:42:49;4.40;98.70
49489;SHT31;35382;51.484;11.476;2024-03-02T05:45:14;4.38;98.70
49489;SHT31;35382;51.484;11.476;2024-03-02T05:47:39;4.40;98.94
49489;SHT31;35382;51.484;11.476;2024-03-02T05:50:05;4.45;99.07
49489;SHT31;35382;51.484;11.476;2024-03-02T05:52:30;4.50;99.04
49489;SHT31;35382;51.484;11.476;2024-03-02T05:54:56;4.57;99.07
49489;SHT31;35382;51.484;11.476;2024-03-02T05:57:21;4.74;98.83
49489;SHT31;35382;51.484;11.476;2024-03-02T05:59:46;4.69;98.68
49489;SHT31;35382;51.484;11.476;2024-03-02T06:02:12;4.71;98.62
49489;SHT31;35382;51.484;11.476;2024-03-02T06:04:37;4.74;98.44
49489;SHT31;35382;51.484;11.476;2024-03-02T06:07:02;4.55;98.45
49489;SHT31;35382;51.484;11.476;2024-03-02T06:09:28;4.50;98.82
49489;SHT31;35382;51.484;11.476;2024-03-02T06:11:53;4.64;99.07
49489;SHT31;35382;51.484;11.476;2024-03-02T06:14:18;4.64;99.15
49489;SHT31;35382;51.484;11.476;2024-03-02T06:16:44;4.64;99.24
49489;SHT31;35382;51.484;11.476;2024-03-02T06:19:09;4.67;99.33
49489;SHT31;35382;51.484;11.476;2024-03-02T06:21:34;4.67;99.39
49489;SHT31;35382;51.484;11.476;2024-03-02T06:24:00;4.79;99.37
49489;SHT31;35382;51.484;11.476;2024-03-02T06:26:25;4.87;99.27
49489;SHT31;35382;51.484;11.476;2024-03-02T06:28:50;4.84;99.18
49489;SHT31;35382;51.484;11.476;2024-03-02T06:31:16;4.96;99.10
49489;SHT31;35382;51.484;11.476;2024-03-02T06:33:41;5.01;99.07
49489;SHT31;35382;51.484;11.476;2024-03-02T06:36:07;5.09;99.00
49489;SHT31;35382;51.484;11.476;2024-03-02T06:38:32;5.13;98.89
49489;SHT31;35382;51.484;11.476;2024-03-02T06:40:57;5.23;98.82
49489;SHT31;35382;51.484;11.476;2024-03-02T06:43:22;5.36;98.71
49489;SHT31;35382;51.484;11.476;2024-03-02T06:45:48;5.35;98.56
49489;SHT31;35382;51.484;11.476;2024-03-02T06:48:13;5.35;98.54
49489;SHT31;35382;51.484;11.476;2024-03-02T06:50:39;5.33;98.54
49489;SHT31;35382;51.484;11.476;2024-03-02T06:53:04;5.39;98.51
49489;SHT31;35382;51.484;11.476;2024-03-02T06:55:29;5.55;98.61
49489;SHT31;35382;51.484;11.476;2024-03-02T06:57:55;5.66;98.44
49489;SHT31;35382;51.484;11.476;2024-03-02T07:00:20;5.74;98.18
49489;SHT31;35382;51.484;11.476;2024-03-02T07:02:46;5.91;98.11
49489;SHT31;35382;51.484;11.476;2024-03-02T07:05:13;6.04;98.05
49489;SHT31;35382;51.484;11.476;2024-03-02T07:07:38;6.09;97.98
49489;SHT31;35382;51.484;11.476;2024-03-02T07:10:04;6.21;97.94
49489;SHT31;35382;51.484;11.476;2024-03-02T07:12:30;6.33;97.81
49489;SHT31;35382;51.484;11.476;2024-03-02T07:14:55;6.42;97.54
49489;SHT31;35382;51.484;11.476;2024-03-02T07:17:21;6.64;97.39
49489;SHT31;35382;51.484;11.476;2024-03-02T07:19:46;6.74;97.13
49489;SHT31;35382;51.484;11.476;2024-03-02T07:22:11;6.82;96.93
49489;SHT31;35382;51.484;11.476;2024-03-02T07:24:41;6.87;96.54
49489;SHT31;35382;51.484;11.476;2024-03-02T07:27:06;6.93;95.89
49489;SHT31;35382;51.484;11.476;2024-03-02T07:29:32;7.05;95.65
49489;SHT31;35382;51.484;11.476;2024-03-02T07:31:57;7.09;95.30
49489;SHT31;35382;51.484;11.476;2024-03-02T07:34:22;7.22;94.71
49489;SHT31;35382;51.484;11.476;2024-03-02T07:36:48;7.20;94.11
49489;SHT31;35382;51.484;11.476;2024-03-02T07:39:13;7.30;93.80
49489;SHT31;35382;51.484;11.476;2024-03-02T07:41:38;7.30;93.53
49489;SHT31;35382;51.484;11.476;2024-03-02T07:44:04;7.42;93.42
49489;SHT31;35382;51.484;11.476;2024-03-02T07:46:29;7.59;93.04
49489;SHT31;35382;51.484;11.476;2024-03-02T07:48:55;7.67;92.77
49489;SHT31;35382;51.484;11.476;2024-03-02T07:51:20;7.83;91.98
49489;SHT31;35382;51.484;11.476;2024-03-02T07:53:45;7.95;91.52
49489;SHT31;35382;51.484;11.476;2024-03-02T07:56:11;8.38;91.11
49489;SHT31;35382;51.484;11.476;2024-03-02T07:58:36;8.47;90.25
49489;SHT31;35382;51.484;11.476;2024-03-02T08:01:01;8.85;90.01
49489;SHT31;35382;51.484;11.476;2024-03-02T08:03:31;9.14;89.24
49489;SHT31;35382;51.484;11.476;2024-03-02T08:05:56;9.16;88.81
49489;SHT31;35382;51.484;11.476;2024-03-02T08:08:21;9.28;88.52
49489;SHT31;35382;51.484;11.476;2024-03-02T08:10:49;9.51;88.21
49489;SHT31;35382;51.484;11.476;2024-03-02T08:13:14;9.29;87.71
49489;SHT31;35382;51.484;11.476;2024-03-02T08:15:40;9.49;88.21
49489;SHT31;35382;51.484;11.476;2024-03-02T08:18:05;9.76;87.19
49489;SHT31;35382;51.484;11.476;2024-03-02T08:20:31;9.67;87.12
49489;SHT31;35382;51.484;11.476;2024-03-02T08:22:56;9.66;87.19
49489;SHT31;35382;51.484;11.476;2024-03-02T08:25:21;9.89;87.80
49489;SHT31;35382;51.484;11.476;2024-03-02T08:27:49;10.08;86.73
49489;SHT31;35382;51.484;11.476;2024-03-02T08:30:15;10.21;86.88
49489;SHT31;35382;51.484;11.476;2024-03-02T08:32:40;10.38;85.76
49489;SHT31;35382;51.484;11.476;2024-03-02T08:35:06;10.62;85.47
49489;SHT31;35382;51.484;11.476;2024-03-02T08:37:31;10.60;85.89
49489;SHT31;35382;51.484;11.476;2024-03-02T08:39:57;10.48;85.19
49489;SHT31;35382;51.484;11.476;2024-03-02T08:42:22;10.75;85.12
49489;SHT31;35382;51.484;11.476;2024-03-02T08:44:48;10.74;84.06
49489;SHT31;35382;51.484;11.476;2024-03-02T08:47:16;10.99;84.97
49489;SHT31;35382;51.484;11.476;2024-03-02T08:49:42;10.41;85.39
49489;SHT31;35382;51.484;11.476;2024-03-02T08:52:07;10.24;86.63
49489;SHT31;35382;51.484;11.476;2024-03-02T08:54:32;9.97;86.63
49489;SHT31;35382;51.484;11.476;2024-03-02T08:56:58;9.96;86.92
49489;SHT31;35382;51.484;11.476;2024-03-02T08:59:23;9.93;87.51
49489;SHT31;35382;51.484;11.476;2024-03-02T09:01:48;10.03;86.70
49489;SHT31;35382;51.484;11.476;2024-03-02T09:04:14;10.07;87.10
49489;SHT31;35382;51.484;11.476;2024-03-02T09:06:39;10.22;86.97
49489;SHT31;35382;51.484;11.476;2024-03-02T09:09:04;10.08;86.41
49489;SHT31;35382;51.484;11.476;2024-03-02T09:11:31;9.86;87.35
49489;SHT31;35382;51.484;11.476;2024-03-02T09:13:57;10.16;87.27
49489;SHT31;35382;51.484;11.476;2024-03-02T09:16:22;10.16;87.46
49489;SHT31;35382;51.484;11.476;2024-03-02T09:18:47;10.18;87.45
49489;SHT31;35382;51.484;11.476;2024-03-02T09:21:13;10.27;86.58
49489;SHT31;35382;51.484;11.476;2024-03-02T09:23:38;10.37;86.91
49489;SHT31;35382;51.484;11.476;2024-03-02T09:26:03;10.34;86.78
49489;SHT31;35382;51.484;11.476;2024-03-02T09:28:31;10.55;85.87
49489;SHT31;35382;51.484;11.476;2024-03-02T09:31:00;10.55;85.33
49489;SHT31;35382;51.484;11.476;2024-03-02T09:33:27;10.41;85.50
49489;SHT31;35382;51.484;11.476;2024-03-02T09:35:55;10.52;86.39
49489;SHT31;35382;51.484;11.476;2024-03-02T09:38:20;10.28;85.52
49489;SHT31;35382;51.484;11.476;2024-03-02T09:40:46;10.33;87.30
49489;SHT31;35382;51.484;11.476;2024-03-02T09:43:11;10.28;86.79
49489;SHT31;35382;51.484;11.476;2024-03-02T09:45:37;10.33;87.00
49489;SHT31;35382;51.484;11.476;2024-03-02T09:48:03;10.37;85.51
49489;SHT31;35382;51.484;11.476;2024-03-02T09:50:28;10.33;85.63
49489;SHT31;35382;51.484;11.476;2024-03-02T09:52:53;10.45;85.10
49489;SHT31;35382;51.484;11.476;2024-03-02T09:55:20;10.41;84.36
49489;SHT31;35382;51.484;11.476;2024-03-02T09:57:46;10.38;85.02
49489;SHT31;35382;51.484;11.476;2024-03-02T10:00:12;10.31;84.45
49489;SHT31;35382;51.484;11.476;2024-03-02T10:02:38;10.40;85.45
49489;SHT31;35382;51.484;11.476;2024-03-02T10:05:03;10.60;85.55
49489;SHT31;35382;51.484;11.476;2024-03-02T10:07:28;10.78;85.59
49489;SHT31;35382;51.484;11.476;2024-03-02T10:09:54;10.79;85.05
49489;SHT31;35382;51.484;11.476;2024-03-02T10:12:22;10.88;84.79
49489;SHT31;35382;51.484;11.476;2024-03-02T10:14:47;10.76;83.75
49489;SHT31;35382;51.484;11.476;2024-03-02T10:17:13;10.79;84.30
49489;SHT31;35382;51.484;11.476;2024-03-02T10:19:39;10.82;84.10
49489;SHT31;35382;51.484;11.476;2024-03-02T10:22:09;10.96;84.16
49489;SHT31;35382;51.484;11.476;2024-03-02T10:27:01;11.50;82.12
49489;SHT31;35382;51.484;11.476;2024-03-02T10:29:29;11.58;80.83
49489;SHT31;35382;51.484;11.476;2024-03-02T10:31:55;11.94;81.05
49489;SHT31;35382;51.484;11.476;2024-03-02T10:34:21;12.75;78.75
49489;SHT31;35382;51.484;11.476;2024-03-02T10:36:47;13.43;78.10
49489;SHT31;35382;51.484;11.476;2024-03-02T10:39:13;13.80;75.08
49489;SHT31;35382;51.484;11.476;2024-03-02T10:41:40;14.05;74.96
49489;SHT31;35382;51.484;11.476;2024-03-02T10:44:06;13.83;77.81
49489;SHT31;35382;51.484;11.476;2024-03-02T10:46:33;13.36;75.74
49489;SHT31;35382;51.484;11.476;2024-03-02T10:48:59;12.61;77.27
49489;SHT31;35382;51.484;11.476;2024-03-02T10:51:27;12.27;79.20
49489;SHT31;35382;51.484;11.476;2024-03-02T10:53:53;12.68;78.08
49489;SHT31;35382;51.484;11.476;2024-03-02T10:56:28;13.06;78.96
49489;SHT31;35382;51.484;11.476;2024-03-02T10:59:17;13.34;77.11
49489;SHT31;35382;51.484;11.476;2024-03-02T11:01:50;13.25;78.91
49489;SHT31;35382;51.484;11.476;2024-03-02T11:04:18;13.09;78.15
49489;SHT31;35382;51.484;11.476;2024-03-02T11:06:48;13.01;78.23
49489;SHT31;35382;51.484;11.476;2024-03-02T11:09:14;12.91;75.32
49489;SHT31;35382;51.484;11.476;2024-03-02T11:11:43;12.58;76.68
49489;SHT31;35382;51.484;11.476;2024-03-02T11:14:14;12.72;77.54
49489;SHT31;35382;51.484;11.476;2024-03-02T11:16:41;12.77;77.67
49489;SHT31;35382;51.484;11.476;2024-03-02T11:19:10;12.81;77.65
49489;SHT31;35382;51.484;11.476;2024-03-02T11:21:36;13.05;76.57
49489;SHT31;35382;51.484;11.476;2024-03-02T11:26:46;14.37;74.18
49489;SHT31;35382;51.484;11.476;2024-03-02T11:32:03;14.12;72.76
49489;SHT31;35382;51.484;11.476;2024-03-02T11:34:33;13.70;73.49
49489;SHT31;35382;51.484;11.476;2024-03-02T11:37:01;13.11;74.32
49489;SHT31;35382;51.484;11.476;2024-03-02T11:39:27;12.78;75.52
49489;SHT31;35382;51.484;11.476;2024-03-02T11:41:53;12.72;77.23
49489;SHT31;35382;51.484;11.476;2024-03-02T11:44:19;13.08;75.59
49489;SHT31;35382;51.484;11.476;2024-03-02T11:47:05;13.30;75.11
49489;SHT31;35382;51.484;11.476;2024-03-02T11:49:58;13.20;74.81
49489;SHT31;35382;51.484;11.476;2024-03-02T11:52:25;13.20;75.14
49489;SHT31;35382;51.484;11.476;2024-03-02T11:54:53;13.45;75.02
49489;SHT31;35382;51.484;11.476;2024-03-02T11:57:20;13.99;74.99
49489;SHT31;35382;51.484;11.476;2024-03-02T11:59:45;13.99;73.32
49489;SHT31;35382;51.484;11.476;2024-03-02T12:02:17;14.13;73.06
49489;SHT31;35382;51.484;11.476;2024-03-02T12:04:43;14.24;73.83
49489;SHT31;35382;51.484;11.476;2024-03-02T12:07:08;14.12;73.36
49489;SHT31;35382;51.484;11.476;2024-03-02T12:09:34;14.20;73.91
49489;SHT31;35382;51.484;11.476;2024-03-02T12:14:32;14.30;73.96
49489;SHT31;35382;51.484;11.476;2024-03-02T12:16:58;14.34;73.62
49489;SHT31;35382;51.484;11.476;2024-03-02T12:19:23;14.28;72.41
49489;SHT31;35382;51.484;11.476;2024-03-02T12:21:48;14.37;71.61
49489;SHT31;35382;51.484;11.476;2024-03-02T12:24:14;14.28;71.60
49489;SHT31;35382;51.484;11.476;2024-03-02T12:26:39;14.21;70.99
49489;SHT31;35382;51.484;11.476;2024-03-02T12:29:05;14.28;73.67
49489;SHT31;35382;51.484;11.476;2024-03-02T12:31:30;14.20;72.23
49489;SHT31;35382;51.484;11.476;2024-03-02T12:33:56;14.21;72.33
49489;SHT31;35382;51.484;11.476;2024-03-02T12:36:22;14.09;71.74
49489;SHT31;35382;51.484;11.476;2024-03-02T12:38:47;14.12;72.96
49489;SHT31;35382;51.484;11.476;2024-03-02T12:41:16;14.13;71.69
49489;SHT31;35382;51.484;11.476;2024-03-02T12:43:41;14.21;72.42
49489;SHT31;35382;51.484;11.476;2024-03-02T12:46:07;14.18;72.08
49489;SHT31;35382;51.484;11.476;2024-03-02T12:48:32;14.02;72.34
49489;SHT31;35382;51.484;11.476;2024-03-02T12:50:58;13.99;73.24
49489;SHT31;35382;51.484;11.476;2024-03-02T12:53:23;13.90;72.35
49489;SHT31;35382;51.484;11.476;2024-03-02T12:55:49;14.10;72.60
49489;SHT31;35382;51.484;11.476;2024-03-02T12:58:22;14.10;72.09
49489;SHT31;35382;51.484;11.476;2024-03-02T13:00:47;14.06;73.54
49489;SHT31;35382;51.484;11.476;2024-03-02T13:03:13;13.72;74.69
49489;SHT31;35382;51.484;11.476;2024-03-02T13:05:38;13.93;72.29
49489;SHT31;35382;51.484;11.476;2024-03-02T13:08:04;13.67;72.92
49489;SHT31;35382;51.484;11.476;2024-03-02T13:10:30;13.83;73.79
49489;SHT31;35382;51.484;11.476;2024-03-02T13:12:56;13.83;73.79
49489;SHT31;35382;51.484;11.476;2024-03-02T13:15:22;14.00;73.95
49489;SHT31;35382;51.484;11.476;2024-03-02T13:17:47;13.79;73.62
49489;SHT31;35382;51.484;11.476;2024-03-02T13:20:14;13.66;73.37
49489;SHT31;35382;51.484;11.476;2024-03-02T13:22:40;13.66;73.10
49489;SHT31;35382;51.484;11.476;2024-03-02T13:25:05;13.66;70.75
49489;SHT31;35382;51.484;11.476;2024-03-02T13:27:31;14.03;70.06
49489;SHT31;35382;51.484;11.476;2024-03-02T13:29:56;14.05;69.98
49489;SHT31;35382;51.484;11.476;2024-03-02T13:32:22;13.77;70.55
49489;SHT31;35382;51.484;11.476;2024-03-02T13:34:47;13.90;70.45
49489;SHT31;35382;51.484;11.476;2024-03-02T13:37:12;14.16;70.84
49489;SHT31;35382;51.484;11.476;2024-03-02T13:39:40;14.34;68.88
49489;SHT31;35382;51.484;11.476;2024-03-02T13:42:09;14.26;68.31
49489;SHT31;35382;51.484;11.476;2024-03-02T13:44:35;14.16;68.85
49489;SHT31;35382;51.484;11.476;2024-03-02T13:47:01;14.10;69.00
49489;SHT31;35382;51.484;11.476;2024-03-02T13:49:27;13.53;68.75
49489;SHT31;35382;51.484;11.476;2024-03-02T13:51:55;13.60;69.09
49489;SHT31;35382;51.484;11.476;2024-03-02T13:54:20;13.72;69.02
49489;SHT31;35382;51.484;11.476;2024-03-02T13:56:45;13.90;67.91
49489;SHT31;35382;51.484;11.476;2024-03-02T13:59:11;14.14;66.89
49489;SHT31;35382;51.484;11.476;2024-03-02T14:01:36;14.26;65.26
49489;SHT31;35382;51.484;11.476;2024-03-02T14:04:01;14.33;66.58
49489;SHT31;35382;51.484;11.476;2024-03-02T14:06:27;14.09;64.82
49489;SHT31;35382;51.484;11.476;2024-03-02T14:08:55;14.21;64.26
49489;SHT31;35382;51.484;11.476;2024-03-02T14:11:20;14.26;66.02
49489;SHT31;35382;51.484;11.476;2024-03-02T14:13:48;14.36;66.97
49489;SHT31;35382;51.484;11.476;2024-03-02T14:16:13;14.30;67.12
49489;SHT31;35382;51.484;11.476;2024-03-02T14:18:39;13.91;66.75
49489;SHT31;35382;51.484;11.476;2024-03-02T14:21:04;14.05;66.18
49489;SHT31;35382;51.484;11.476;2024-03-02T14:23:30;14.17;65.36
49489;SHT31;35382;51.484;11.476;2024-03-02T14:25:55;14.06;64.46
49489;SHT31;35382;51.484;11.476;2024-03-02T14:28:21;14.31;65.37
49489;SHT31;35382;51.484;11.476;2024-03-02T14:30:48;14.38;64.24
49489;SHT31;35382;51.484;11.476;2024-03-02T14:33:14;14.47;63.48
49489;SHT31;35382;51.484;11.476;2024-03-02T14:35:39;14.65;63.84
49489;SHT31;35382;51.484;11.476;2024-03-02T14:38:05;14.52;64.71
49489;SHT31;35382;51.484;11.476;2024-03-02T14:40:30;14.45;64.54
49489;SHT31;35382;51.484;11.476;2024-03-02T14:42:55;14.83;64.52
49489;SHT31;35382;51.484;11.476;2024-03-02T14:45:21;14.71;64.15
49489;SHT31;35382;51.484;11.476;2024-03-02T14:47:46;14.95;63.19
49489;SHT31;35382;51.484;11.476;2024-03-02T14:50:12;15.56;64.08
49489;SHT31;35382;51.484;11.476;2024-03-02T14:52:37;15.90;62.63
49489;SHT31;35382;51.484;11.476;2024-03-02T14:55:03;16.13;62.71
49489;SHT31;35382;51.484;11.476;2024-03-02T14:57:28;16.26;63.73
49489;SHT31;35382;51.484;11.476;2024-03-02T14:59:53;16.36;61.12
49489;SHT31;35382;51.484;11.476;2024-03-02T15:02:19;15.62;62.86
49489;SHT31;35382;51.484;11.476;2024-03-02T15:04:44;15.58;64.84
49489;SHT31;35382;51.484;11.476;2024-03-02T15:07:10;15.43;64.07
49489;SHT31;35382;51.484;11.476;2024-03-02T15:09:35;15.15;65.26
49489;SHT31;35382;51.484;11.476;2024-03-02T15:12:00;15.51;64.81
49489;SHT31;35382;51.484;11.476;2024-03-02T15:14:26;15.22;65.35
49489;SHT31;35382;51.484;11.476;2024-03-02T15:16:51;15.11;66.65
49489;SHT31;35382;51.484;11.476;2024-03-02T15:19:17;14.92;67.36
49489;SHT31;35382;51.484;11.476;2024-03-02T15:21:42;14.99;68.34
49489;SHT31;35382;51.484;11.476;2024-03-02T15:24:07;14.31;68.85
49489;SHT31;35382;51.484;11.476;2024-03-02T15:26:33;13.73;70.38
49489;SHT31;35382;51.484;11.476;2024-03-02T15:28:58;13.05;72.38
49489;SHT31;35382;51.484;11.476;2024-03-02T15:31:23;12.87;73.80